.
WxDataArchive / Data Records for 2014-06-18
2014-06-17 June 2014 2014-06-19

Data Records for Wednesday, 18 June 2014

Time	Temp	Chill	HIndex	Humid	Dewpt	 Wind 	HiWind	WindDir	Rain 	Barom
-----	----	-----	------	-----	-----	------	------	-------	-----	-----
00:00	81.6	81.6	84.6	64	68.2	0	1	292	0.00	29.916 
00:05	81.4	81.4	84.3	64	68.0	0	1	292	0.00	29.916 
00:10	81.2	81.2	84.0	64	67.8	0	1	292	0.00	29.916 
00:15	81.2	81.2	84.1	65	68.3	0	1	292	0.00	29.918 
00:20	81.1	81.1	84.0	65	68.2	0	1	292	0.00	29.918 
00:25	81.1	81.1	84.0	65	68.2	0	1	292	0.00	29.918 
00:30	80.7	80.7	83.4	65	67.8	0	0	---	0.00	29.918 
00:35	80.5	80.5	83.2	66	68.1	0	1	292	0.00	29.918 
00:40	80.5	80.5	83.2	66	68.1	0	1	292	0.00	29.918 
00:45	80.3	80.3	82.9	66	67.9	0	1	292	0.00	29.925 
00:50	80.3	80.3	83.0	67	68.3	0	0	---	0.00	29.925 
00:55	80.1	80.1	82.7	67	68.1	0	0	---	0.00	29.925 
01:00	79.9	79.9	82.5	67	67.9	0	1	292	0.00	29.933 
01:05	79.8	79.8	82.4	68	68.3	0	0	---	0.00	29.933 
01:10	79.6	79.6	82.1	68	68.1	0	0	---	0.00	29.933 
01:15	79.4	79.4	81.9	69	68.3	0	0	---	0.00	29.934 
01:20	79.2	79.2	81.6	69	68.1	0	0	---	0.00	29.934 
01:25	78.8	78.8	81.1	70	68.2	0	0	---	0.00	29.934 
01:30	78.6	78.6	80.8	70	68.0	0	0	---	0.00	29.934 
01:35	78.5	78.5	80.8	71	68.3	0	0	---	0.00	29.934 
01:40	78.3	78.3	80.5	72	68.5	0	0	---	0.00	29.934 
01:45	78.1	78.1	80.2	72	68.3	0	0	---	0.00	29.936 
01:50	77.9	77.9	80.0	73	68.5	0	0	---	0.00	29.936 
01:55	77.7	77.7	79.7	73	68.3	0	0	---	0.00	29.936 
02:00	77.6	77.6	79.6	74	68.6	0	0	---	0.00	29.933 
02:05	77.4	77.4	79.3	74	68.4	0	0	---	0.00	29.933 
02:10	77.2	77.2	79.0	75	68.6	0	0	---	0.00	29.933 
02:15	77.2	77.2	79.0	75	68.6	0	0	---	0.00	29.925 
02:20	77.0	77.0	78.7	75	68.5	0	0	---	0.00	29.925 
02:25	76.8	76.8	78.4	76	68.6	0	0	---	0.00	29.925 
02:30	76.8	76.8	78.4	76	68.6	0	1	292	0.00	29.923 
02:35	77.0	77.0	78.7	76	68.8	0	1	292	0.00	29.923 
02:40	77.0	77.0	78.7	76	68.8	0	0	---	0.00	29.923 
02:45	77.0	77.0	78.7	76	68.8	0	0	---	0.00	29.926 
02:50	76.8	76.8	78.4	76	68.6	0	1	292	0.00	29.926 
02:55	76.8	76.8	78.4	76	68.6	0	0	---	0.00	29.926 
03:00	76.7	76.7	78.2	76	68.5	0	0	---	0.00	29.926 
03:05	76.7	76.7	78.2	76	68.5	0	0	---	0.00	29.926 
03:10	76.5	76.5	77.9	77	68.7	0	0	---	0.00	29.926 
03:15	76.3	76.3	77.6	77	68.5	0	0	---	0.00	29.927 
03:20	76.3	76.3	77.6	77	68.5	0	0	---	0.00	29.927 
03:25	76.0	76.0	77.2	77	68.3	0	0	---	0.00	29.927 
03:30	76.0	76.0	77.2	78	68.6	0	0	---	0.00	29.918 
03:35	75.8	75.8	76.9	78	68.4	0	0	---	0.00	29.918 
03:40	75.6	75.6	76.6	78	68.2	0	0	---	0.00	29.918 
03:45	75.4	75.4	76.3	78	68.0	0	0	---	0.00	29.925 
03:50	75.3	75.3	76.1	79	68.3	0	0	---	0.00	29.925 
03:55	75.3	75.3	76.1	79	68.3	0	0	---	0.00	29.925 
04:00	75.1	75.1	75.8	79	68.1	0	0	---	0.00	29.923 
04:05	75.1	75.1	75.8	79	68.1	0	0	---	0.00	29.923 
04:10	75.1	75.1	75.8	79	68.1	0	0	---	0.00	29.923 
04:15	75.3	75.3	76.1	79	68.3	0	0	---	0.00	29.919 
04:20	75.3	75.3	76.1	79	68.3	0	0	---	0.00	29.919 
04:25	75.3	75.3	76.1	79	68.3	0	1	292	0.00	29.919 
04:30	75.3	75.3	76.1	79	68.3	0	0	---	0.00	29.915 
04:35	75.3	75.3	76.1	79	68.3	0	0	---	0.00	29.915 
04:40	75.3	75.3	76.1	79	68.3	0	1	292	0.00	29.915 
04:45	75.1	75.1	75.7	80	68.5	0	1	292	0.00	29.901 
04:50	75.3	75.3	76.0	80	68.7	0	0	---	0.00	29.901 
04:55	75.3	75.3	76.0	80	68.7	0	0	---	0.00	29.901 
05:00	75.3	75.3	76.0	80	68.7	0	1	292	0.00	29.896 
05:05	75.3	75.3	76.0	80	68.7	0	1	292	0.00	29.896 
05:10	75.1	75.1	75.7	80	68.5	0	1	292	0.00	29.896 
05:15	75.1	75.1	75.7	80	68.5	0	0	---	0.00	29.895 
05:20	75.1	75.1	75.6	81	68.9	0	1	292	0.00	29.895 
05:25	74.9	74.9	74.9	81	68.7	0	0	---	0.00	29.895 
05:30	74.9	74.9	74.9	81	68.7	0	1	292	0.00	29.901 
05:35	75.1	75.1	75.6	81	68.9	0	3	292	0.00	29.901 
05:40	75.1	75.1	75.6	81	68.9	0	1	292	0.00	29.901 
05:45	75.1	75.1	75.6	81	68.9	0	2	292	0.00	29.918 
05:50	75.3	75.3	75.9	81	69.1	0	0	---	0.00	29.918 
05:55	75.1	75.1	75.6	81	68.9	0	0	---	0.00	29.918 
06:00	75.3	75.3	75.9	81	69.1	0	1	292	0.00	29.915 
06:05	75.4	75.4	76.1	80	68.8	0	1	292	0.00	29.915 
06:10	75.4	75.4	76.1	80	68.8	0	1	292	0.00	29.915 
06:15	75.4	75.4	76.1	80	68.8	0	1	292	0.00	29.922 
06:20	75.4	75.4	76.1	80	68.8	0	0	---	0.00	29.922 
06:25	75.4	75.4	76.1	80	68.8	0	3	292	0.00	29.922 
06:30	75.6	75.6	76.5	79	68.6	0	3	292	0.00	29.926 
06:35	75.8	75.8	76.8	79	68.8	0	1	292	0.00	29.926 
06:40	75.8	75.8	76.8	79	68.8	0	1	292	0.00	29.926 
06:45	75.8	75.8	76.8	79	68.8	0	1	292	0.00	29.933 
06:50	75.8	75.8	76.8	79	68.8	0	1	292	0.00	29.933 
06:55	76.0	76.0	77.1	79	69.0	0	2	292	0.00	29.933 
07:00	76.0	76.0	77.1	79	69.0	0	1	292	0.00	29.942 
07:05	76.0	76.0	77.1	79	69.0	0	1	292	0.00	29.942 
07:10	76.0	76.0	77.1	79	69.0	0	1	292	0.00	29.942 
07:15	76.0	76.0	77.1	79	69.0	0	1	292	0.00	29.956 
07:20	76.0	76.0	77.1	79	69.0	0	2	292	0.00	29.956 
07:25	76.1	76.1	77.2	79	69.1	0	1	292	0.00	29.956 
07:30	76.1	76.1	77.2	79	69.1	0	2	292	0.00	29.958 
07:35	76.1	76.1	77.2	79	69.1	0	0	---	0.00	29.958 
07:40	76.3	76.3	77.5	79	69.3	0	1	292	0.00	29.958 
07:45	76.3	76.3	77.5	79	69.3	0	1	292	0.00	29.965 
07:50	76.3	76.3	77.5	79	69.3	0	1	292	0.00	29.965 
07:55	76.5	76.5	77.8	79	69.5	0	1	292	0.00	29.965 
08:00	76.7	76.7	78.2	78	69.3	0	1	292	0.00	29.966 
08:05	76.8	76.8	78.3	78	69.4	0	1	292	0.00	29.966 
08:10	76.8	76.8	78.3	78	69.4	0	1	292	0.00	29.966 
08:15	77.0	77.0	78.6	78	69.6	0	1	292	0.00	29.972 
08:20	77.0	77.0	78.6	78	69.6	0	0	---	0.00	29.972 
08:25	77.2	77.2	79.0	77	69.4	0	1	292	0.00	29.972 
08:30	77.2	77.2	79.0	77	69.4	0	1	292	0.00	29.983 
08:35	77.2	77.2	79.0	77	69.4	0	2	292	0.00	29.983 
08:40	77.4	77.4	79.3	77	69.6	0	1	292	0.00	29.983 
08:45	77.4	77.4	79.3	77	69.6	0	1	292	0.00	29.986 
08:50	77.6	77.6	79.6	77	69.8	0	1	292	0.00	29.986 
08:55	77.9	77.9	80.0	76	69.7	0	2	292	0.00	29.986 
09:00	77.9	77.9	80.0	76	69.7	0	1	292	0.00	29.982 
09:05	78.1	78.1	80.4	77	70.3	0	1	292	0.00	29.982 
09:10	78.3	78.3	80.6	75	69.7	0	3	292	0.00	29.982 
09:15	78.5	78.5	81.0	75	69.9	0	4	292	0.00	29.981 
09:20	78.6	78.6	81.1	75	70.0	0	1	292	0.00	29.981 
09:25	78.8	78.8	81.5	76	70.6	0	2	292	0.00	29.981 
09:30	79.0	79.0	81.8	75	70.4	0	3	292	0.00	29.982 
09:35	78.8	78.8	81.4	74	69.8	0	1	292	0.00	29.982 
09:40	78.8	78.8	81.4	74	69.8	0	1	292	0.00	29.982 
09:45	79.0	79.0	81.8	75	70.4	0	1	292	0.00	29.976 
09:50	79.6	79.6	82.7	74	70.6	0	1	292	0.00	29.976 
09:55	79.9	79.9	83.1	73	70.4	0	3	292	0.00	29.976 
10:00	79.9	79.9	83.0	72	70.0	1	4	292	0.00	29.966 
10:05	80.3	80.3	83.9	73	70.8	0	2	292	0.00	29.966 
10:10	80.9	80.9	84.8	72	71.0	0	2	292	0.00	29.966 
10:15	81.4	81.4	85.5	71	71.1	1	3	292	0.00	29.961 
10:20	81.8	81.8	85.9	69	70.6	1	3	292	0.00	29.961 
10:25	82.0	82.0	86.0	68	70.4	1	3	315	0.00	29.961 
10:30	82.4	82.4	87.0	69	71.2	0	3	315	0.00	29.954 
10:35	82.6	82.6	86.9	67	70.5	2	5	292	0.00	29.954 
10:40	82.6	82.6	87.1	68	70.9	1	4	270	0.00	29.954 
10:45	82.8	82.8	87.5	68	71.1	1	3	292	0.00	29.955 
10:50	83.2	83.2	88.2	68	71.5	1	3	292	0.00	29.955 
10:55	83.4	83.4	88.4	67	71.3	1	5	292	0.00	29.955 
11:00	83.6	83.6	88.7	67	71.5	1	3	292	0.00	29.949 
11:05	83.8	83.8	88.8	66	71.2	1	4	292	0.00	29.949 
11:10	84.3	84.3	89.5	65	71.2	1	3	270	0.00	29.949 
11:15	84.5	84.5	89.6	64	71.0	1	4	270	0.00	29.954 
11:20	84.5	84.5	89.9	65	71.4	0	2	292	0.00	29.954 
11:25	84.0	84.0	88.9	65	70.9	1	3	292	0.00	29.954 
11:30	84.5	84.5	91.2	69	73.2	0	1	292	0.00	29.947 
11:35	85.3	85.3	91.5	65	72.2	1	4	68	0.00	29.947 
11:40	85.3	85.3	90.8	63	71.2	1	3	248	0.00	29.947 
11:45	85.3	85.3	90.8	63	71.2	1	3	270	0.00	29.950 
11:50	85.5	85.5	91.9	65	72.4	0	3	270	0.00	29.950 
11:55	85.5	85.5	90.8	62	71.0	1	4	270	0.00	29.950 
12:00	85.3	85.3	90.5	62	70.8	1	3	270	0.00	29.951 
12:05	85.9	85.9	91.6	62	71.3	0	2	270	0.00	29.951 
12:10	86.5	86.5	93.3	63	72.4	1	2	270	0.00	29.951 
12:15	86.5	86.5	92.1	60	70.9	1	4	270	0.00	29.952 
12:20	86.3	86.3	92.1	61	71.2	1	4	292	0.00	29.952 
12:25	86.5	86.5	92.5	61	71.4	1	3	292	0.00	29.952 
12:30	86.7	86.7	93.3	62	72.1	1	4	270	0.00	29.951 
12:35	87.0	87.0	92.7	59	70.9	1	4	90	0.00	29.951 
12:40	86.3	86.3	91.3	59	70.2	1	4	90	0.00	29.951 
12:45	85.9	85.9	91.6	62	71.3	0	1	0	0.00	29.946 
12:50	85.9	85.9	91.3	61	70.9	1	2	0	0.00	29.946 
12:55	85.7	85.7	90.5	60	70.2	2	7	270	0.00	29.946 
13:00	86.1	86.1	91.3	60	70.6	1	3	270	0.00	29.938 
13:05	85.9	85.9	90.6	59	69.9	1	3	292	0.00	29.938 
13:10	85.9	85.9	90.6	59	69.9	1	3	292	0.00	29.938 
13:15	86.1	86.1	91.3	60	70.6	1	4	292	0.00	29.937 
13:20	86.7	86.7	91.7	58	70.1	1	4	292	0.00	29.937 
13:25	87.4	87.4	92.2	56	69.7	1	5	292	0.00	29.937 
13:30	88.0	88.0	93.4	56	70.3	1	4	270	0.00	29.931 
13:35	88.4	88.4	93.3	54	69.6	1	3	270	0.00	29.931 
13:40	88.2	88.2	92.9	54	69.4	1	3	270	0.00	29.931 
13:45	88.4	88.4	93.7	55	70.1	1	4	270	0.00	29.924 
13:50	88.2	88.2	92.1	52	68.3	2	5	292	0.00	29.924 
13:55	88.2	88.2	92.5	53	68.9	1	4	292	0.00	29.924 
14:00	88.6	88.6	93.3	53	69.2	0	2	292	0.00	29.916 
14:05	89.0	89.0	94.0	53	69.6	1	3	292	0.00	29.916 
14:10	88.8	88.8	92.4	50	67.7	2	4	292	0.00	29.916 
14:15	88.8	88.8	93.7	53	69.4	1	5	292	0.00	29.903 
14:20	89.0	89.0	93.6	52	69.0	1	4	270	0.00	29.903 
14:25	89.0	89.0	93.2	51	68.5	1	5	292	0.00	29.903 
14:30	89.3	89.3	92.9	49	67.6	1	5	248	0.00	29.896 
14:35	89.5	89.5	92.4	47	66.6	2	5	292	0.00	29.896 
14:40	89.9	89.9	94.0	49	68.1	1	4	292	0.00	29.896 
14:45	89.9	89.9	93.5	48	67.5	1	4	248	0.00	29.903 
14:50	89.7	89.7	93.6	49	68.0	0	1	248	0.00	29.903 
14:55	89.7	89.7	92.4	46	66.1	1	2	248	0.00	29.903 
15:00	89.7	89.7	92.4	46	66.1	1	5	270	0.00	29.911 
15:05	89.7	89.7	92.4	46	66.1	1	4	270	0.00	29.911 
15:10	89.9	89.9	94.0	49	68.1	0	2	270	0.00	29.911 
15:15	89.9	89.9	93.5	48	67.5	1	5	270	0.00	29.903 
15:20	89.7	89.7	92.8	47	66.7	1	4	270	0.00	29.903 
15:25	89.3	89.3	92.5	48	67.0	1	2	270	0.00	29.903 
15:30	89.0	89.0	92.4	49	67.3	1	3	270	0.00	29.899 
15:35	88.8	88.8	92.0	49	67.1	1	6	90	0.00	29.899 
15:40	88.6	88.6	92.1	50	67.5	1	3	270	0.00	29.899 
15:45	88.2	88.2	91.4	50	67.2	1	2	270	0.00	29.905 
15:50	88.0	88.0	91.4	51	67.6	0	3	270	0.00	29.905 
15:55	88.0	88.0	91.8	52	68.1	0	1	270	0.00	29.905 
16:00	87.8	87.8	90.7	50	66.8	0	2	270	0.00	29.909 
16:05	84.5	84.5	85.3	48	62.6	4	12	270	0.00	29.909 
16:10	78.6	78.6	80.1	57	62.1	6	12	315	0.00	29.909 
16:15	76.0	76.0	77.9	63	62.5	3	12	315	0.00	29.960 
16:20	74.6	74.6	74.6	65	62.0	4	9	292	0.00	29.960 
16:25	73.9	73.9	73.9	69	63.1	4	9	292	0.00	29.960 
16:30	73.2	73.2	73.2	78	65.9	4	9	270	0.09	30.027 
16:35	70.8	70.8	70.8	84	65.7	3	12	270	0.31	30.027 
16:40	69.6	69.6	69.6	85	64.9	0	2	270	0.14	30.027 
16:45	69.1	69.1	69.1	88	65.4	1	3	270	0.02	29.951 
16:50	68.8	68.8	68.8	89	65.4	0	1	270	0.00	29.951 
16:55	68.6	68.6	68.6	89	65.2	1	5	270	0.00	29.951 
17:00	68.4	68.4	68.4	90	65.3	1	3	112	0.01	29.956 
17:05	68.3	68.3	68.3	90	65.2	2	4	90	0.00	29.956 
17:10	68.1	68.1	68.1	91	65.4	1	3	112	0.00	29.956 
17:15	68.1	68.1	68.1	91	65.4	1	4	135	0.00	29.931 
17:20	68.3	68.3	68.3	91	65.6	0	2	135	0.00	29.931 
17:25	68.3	68.3	68.3	91	65.6	0	2	135	0.01	29.931 
17:30	68.4	68.4	68.4	91	65.7	0	2	135	0.00	29.907 
17:35	68.6	68.6	68.6	91	65.9	0	1	135	0.00	29.907 
17:40	68.6	68.6	68.6	92	66.2	0	0	---	0.00	29.907 
17:45	68.6	68.6	68.6	92	66.2	0	0	---	0.00	29.888 
17:50	68.6	68.6	68.6	92	66.2	0	0	---	0.01	29.888 
17:55	68.9	68.9	68.9	92	66.5	0	1	135	0.00	29.888 
18:00	68.9	68.9	68.9	92	66.5	0	2	135	0.00	29.905 
18:05	68.8	68.8	68.8	93	66.7	0	0	---	0.00	29.905 
18:10	68.9	68.9	68.9	93	66.8	0	2	135	0.00	29.905 
18:15	69.1	69.1	69.1	93	67.0	0	1	135	0.00	29.887 
18:20	69.1	69.1	69.1	93	67.0	0	0	---	0.00	29.887 
18:25	69.4	69.4	69.4	93	67.3	0	1	135	0.00	29.887 
18:30	69.4	69.4	69.4	93	67.3	0	0	---	0.00	29.906 
18:35	69.4	69.4	69.4	93	67.3	0	1	135	0.00	29.906 
18:40	69.6	69.6	69.6	93	67.5	0	2	135	0.00	29.906 
18:45	69.4	69.4	69.4	93	67.3	0	1	135	0.00	29.898 
18:50	69.6	69.6	69.6	93	67.5	0	1	135	0.00	29.898 
18:55	69.6	69.6	69.6	93	67.5	0	1	135	0.00	29.898 
19:00	69.6	69.6	69.6	93	67.5	0	1	135	0.00	29.890 
19:05	69.8	69.8	69.8	93	67.7	0	1	135	0.00	29.890 
19:10	69.8	69.8	69.8	93	67.7	0	1	135	0.00	29.890 
19:15	69.8	69.8	69.8	93	67.7	0	2	135	0.00	29.897 
19:20	69.8	69.8	69.8	93	67.7	0	1	135	0.00	29.897 
19:25	69.8	69.8	69.8	92	67.4	0	1	135	0.00	29.897 
19:30	69.9	69.9	69.9	92	67.5	0	1	135	0.00	29.898 
19:35	69.9	69.9	69.9	92	67.5	0	1	135	0.00	29.898 
19:40	69.9	69.9	69.9	92	67.5	0	1	135	0.00	29.898 
19:45	70.1	70.1	70.1	92	67.7	0	0	---	0.00	29.918 
19:50	70.3	70.3	70.3	92	67.9	0	0	---	0.00	29.918 
19:55	70.3	70.3	70.3	92	67.9	0	0	---	0.00	29.918 
20:00	70.3	70.3	70.3	92	67.9	0	0	---	0.00	29.934 
20:05	70.4	70.4	70.4	92	68.0	0	0	---	0.00	29.934 
20:10	70.4	70.4	70.4	92	68.0	0	1	135	0.00	29.934 
20:15	70.4	70.4	70.4	91	67.6	0	0	---	0.00	29.940 
20:20	70.6	70.6	70.6	91	67.8	0	0	---	0.00	29.940 
20:25	70.6	70.6	70.6	91	67.8	0	0	---	0.00	29.940 
20:30	70.6	70.6	70.6	91	67.8	0	1	135	0.00	29.939 
20:35	70.6	70.6	70.6	91	67.8	0	1	135	0.00	29.939 
20:40	70.4	70.4	70.4	91	67.6	0	1	135	0.00	29.939 
20:45	70.4	70.4	70.4	91	67.6	0	1	135	0.00	29.931 
20:50	70.4	70.4	70.4	91	67.6	0	1	135	0.00	29.931 
20:55	70.4	70.4	70.4	90	67.3	0	1	135	0.00	29.931 
21:00	70.4	70.4	70.4	91	67.6	0	4	135	0.00	29.931 
21:05	70.4	70.4	70.4	90	67.3	1	4	135	0.00	29.931 
21:10	70.6	70.6	70.6	90	67.5	0	3	135	0.00	29.931 
21:15	70.6	70.6	70.6	91	67.8	0	1	135	0.00	29.930 
21:20	70.6	70.6	70.6	91	67.8	0	1	135	0.00	29.930 
21:25	70.6	70.6	70.6	91	67.8	0	1	135	0.00	29.930 
21:30	70.8	70.8	70.8	91	68.0	0	1	135	0.00	29.930 
21:35	70.8	70.8	70.8	91	68.0	0	1	135	0.00	29.930 
21:40	70.8	70.8	70.8	91	68.0	0	3	270	0.00	29.930 
21:45	70.9	70.9	70.9	91	68.1	0	2	270	0.00	29.942 
21:50	70.9	70.9	70.9	92	68.5	0	2	270	0.00	29.942 
21:55	70.9	70.9	70.9	92	68.5	0	2	270	0.00	29.942 
22:00	70.9	70.9	70.9	92	68.5	0	0	---	0.00	29.936 
22:05	71.1	71.1	71.1	92	68.7	0	1	270	0.00	29.936 
22:10	71.1	71.1	71.1	92	68.7	0	1	270	0.00	29.936 
22:15	71.1	71.1	71.1	92	68.7	0	1	270	0.00	29.938 
22:20	71.3	71.3	71.3	92	68.8	0	0	---	0.00	29.938 
22:25	71.3	71.3	71.3	92	68.8	0	0	---	0.00	29.938 
22:30	71.1	71.1	71.1	92	68.7	0	0	---	0.00	29.935 
22:35	71.1	71.1	71.1	92	68.7	0	0	---	0.00	29.935 
22:40	71.1	71.1	71.1	92	68.7	0	0	---	0.00	29.935 
22:45	71.1	71.1	71.1	92	68.7	0	0	---	0.00	29.927 
22:50	70.9	70.9	70.9	92	68.5	0	0	---	0.00	29.927 
22:55	70.9	70.9	70.9	92	68.5	0	0	---	0.00	29.927 
23:00	70.8	70.8	70.8	92	68.4	0	0	---	0.00	29.939 
23:05	70.8	70.8	70.8	92	68.4	0	1	270	0.00	29.939 
23:10	70.8	70.8	70.8	93	68.7	0	0	---	0.00	29.939 
23:15	70.9	70.9	70.9	93	68.8	0	0	---	0.00	29.925 
23:20	70.9	70.9	70.9	93	68.8	0	2	270	0.00	29.925 
23:25	71.1	71.1	71.1	93	69.0	0	2	270	0.00	29.925 
23:30	71.1	71.1	71.1	93	69.0	0	0	---	0.00	29.956 
23:35	71.3	71.3	71.3	93	69.2	0	1	270	0.00	29.956 
23:40	71.5	71.5	71.5	93	69.4	0	0	---	0.06	29.956 
23:45	71.5	71.5	71.5	93	69.4	0	0	---	0.06	29.953 
23:50	71.6	71.6	71.6	94	69.8	0	1	270	0.09	29.953 
23:55	71.6	71.6	71.6	94	69.8	0	0	---	0.00	29.953 

CoCoRaHS
IN-AL-39
A2 Web Hosting
Creative Commons License
GoDaddy
search engine by freefind advanced

loaded 2018-11-13 23:46:49 • last modified 2010-11-18 10:43:29
Privacy PolicyDisclaimer
• wx.awcolley.com is powered by PmWiki v.2002016 •
• all content (unless otherwise noted) © 2018 A W Colley